Time;durP1;ratioP1;P1;durP2;ratioP2;P2;SDS_P1;SDS_P2;PMS_P1;PMS_P2;Temp;Humidity;BMP_temperature;BMP_pressure;BME280_temperature;BME280_humidity;BME280_pressure;Samples;Min_cycle;Max_cycle;Signal;HPM_P1;HPM_P2
2021/06/24 00:00:59;;;;;;;1.73;1.10;;;;;;;;;;4989812;28;20491;-87
2021/06/24 00:03:26;;;;;;;4.00;0.93;;;;;;;;;;4986286;28;20047;-86
2021/06/24 00:05:54;;;;;;;3.10;1.38;;;;;;;;;;4974889;28;20086;-86
2021/06/24 00:08:21;;;;;;;3.08;1.10;;;;;;;;;;4989407;28;20046;-85
2021/06/24 00:10:51;;;;;;;2.17;1.10;;;;;;;;;;4979219;28;20058;-86
2021/06/24 00:13:18;;;;;;;2.78;1.23;;;;;;;;;;4974952;28;20054;-86
2021/06/24 00:15:45;;;;;;;3.35;1.05;;;;;;;;;;4986642;28;20046;-85
2021/06/24 00:18:12;;;;;;;3.15;1.05;;;;;;;;;;4988742;28;20054;-85
2021/06/24 00:20:40;;;;;;;2.28;0.95;;;;;;;;;;4957690;28;20046;-85
2021/06/24 00:23:07;;;;;;;2.95;0.95;;;;;;;;;;4974451;28;20078;-85
2021/06/24 00:25:34;;;;;;;2.45;1.40;;;;;;;;;;4985154;28;20064;-87
2021/06/24 00:28:02;;;;;;;3.67;1.27;;;;;;;;;;4982383;28;20055;-85
2021/06/24 00:30:29;;;;;;;4.10;1.30;;;;;;;;;;4957242;28;20043;-86
2021/06/24 00:32:56;;;;;;;2.50;1.25;;;;;;;;;;4978434;28;20061;-85
2021/06/24 00:35:22;;;;;;;2.22;1.40;;;;;;;;;;4974436;28;20062;-86
2021/06/24 00:37:49;;;;;;;2.17;1.48;;;;;;;;;;4985413;28;20101;-86
2021/06/24 00:40:17;;;;;;;3.00;1.10;;;;;;;;;;4974333;28;20050;-85
2021/06/24 00:42:44;;;;;;;2.13;1.25;;;;;;;;;;4981022;28;20050;-85
2021/06/24 00:45:14;;;;;;;2.92;1.38;;;;;;;;;;4978193;28;20059;-85
2021/06/24 00:47:42;;;;;;;2.95;1.33;;;;;;;;;;4981847;28;20051;-85
2021/06/24 00:50:10;;;;;;;4.03;1.10;;;;;;;;;;4983246;28;20133;-85
2021/06/24 00:52:38;;;;;;;2.22;1.10;;;;;;;;;;4982138;28;20049;-86
2021/06/24 00:55:06;;;;;;;4.22;1.33;;;;;;;;;;4989249;28;20047;-86
2021/06/24 00:57:32;;;;;;;2.00;1.20;;;;;;;;;;4994852;28;20125;-86
2021/06/24 00:59:59;;;;;;;2.88;1.20;;;;;;;;;;4993471;28;20438;-86
2021/06/24 01:02:28;;;;;;;1.95;1.20;;;;;;;;;;4985512;28;20050;-88
2021/06/24 01:04:54;;;;;;;1.90;1.20;;;;;;;;;;4997678;28;20061;-86
2021/06/24 01:07:21;;;;;;;2.15;1.40;;;;;;;;;;4987881;28;20491;-87
2021/06/24 01:09:48;;;;;;;2.72;1.48;;;;;;;;;;4983259;28;20050;-86
2021/06/24 01:12:15;;;;;;;3.13;1.48;;;;;;;;;;4997756;28;20520;-86
2021/06/24 01:14:41;;;;;;;3.38;1.40;;;;;;;;;;4996452;28;20050;-86
2021/06/24 01:17:08;;;;;;;2.83;1.55;;;;;;;;;;4992094;28;20046;-87
2021/06/24 01:19:36;;;;;;;1.90;1.13;;;;;;;;;;4988235;28;20050;-86
2021/06/24 01:22:03;;;;;;;2.45;1.00;;;;;;;;;;4977796;28;20050;-86
2021/06/24 01:24:31;;;;;;;3.42;1.40;;;;;;;;;;4961612;28;20093;-87
2021/06/24 01:26:58;;;;;;;4.15;1.50;;;;;;;;;;4996185;28;20487;-88
2021/06/24 01:29:24;;;;;;;3.20;1.30;;;;;;;;;;4996993;28;20137;-86
2021/06/24 01:31:51;;;;;;;3.25;1.20;;;;;;;;;;4980357;28;20054;-85
2021/06/24 01:34:18;;;;;;;3.60;1.60;;;;;;;;;;4980765;28;20486;-85
2021/06/24 01:36:44;;;;;;;1.60;1.13;;;;;;;;;;4980544;28;20050;-87
2021/06/24 01:39:12;;;;;;;3.38;1.17;;;;;;;;;;4995584;28;20491;-86
2021/06/24 01:41:41;;;;;;;4.72;1.48;;;;;;;;;;4998047;28;20129;-86
2021/06/24 01:44:07;;;;;;;2.83;1.30;;;;;;;;;;4981247;28;20431;-86
2021/06/24 01:46:34;;;;;;;5.22;1.60;;;;;;;;;;4978487;28;20073;-84
2021/06/24 01:49:01;;;;;;;1.98;1.10;;;;;;;;;;4993367;28;20536;-88
2021/06/24 01:51:27;;;;;;;2.50;1.60;;;;;;;;;;4980746;28;20046;-87
2021/06/24 01:53:54;;;;;;;2.40;1.02;;;;;;;;;;4963395;28;20050;-87
2021/06/24 01:56:21;;;;;;;2.33;1.35;;;;;;;;;;4998566;28;20090;-87
2021/06/24 01:58:49;;;;;;;3.67;1.20;;;;;;;;;;4982583;28;20054;-86
2021/06/24 02:01:16;;;;;;;8.40;1.63;;;;;;;;;;4999356;28;20050;-87
2021/06/24 02:03:42;;;;;;;3.80;1.90;;;;;;;;;;4998787;28;20051;-86
2021/06/24 02:06:09;;;;;;;4.18;2.03;;;;;;;;;;4982252;28;20042;-88
2021/06/24 02:08:36;;;;;;;2.90;1.42;;;;;;;;;;4999551;28;20061;-87
2021/06/24 02:11:03;;;;;;;2.33;1.30;;;;;;;;;;4968558;28;20055;-88
2021/06/24 02:13:30;;;;;;;3.47;1.10;;;;;;;;;;4971159;28;20047;-86
2021/06/24 02:15:58;;;;;;;2.97;1.35;;;;;;;;;;4959669;28;20054;-85
2021/06/24 02:18:25;;;;;;;3.17;1.35;;;;;;;;;;4977485;28;20063;-84
2021/06/24 02:20:51;;;;;;;2.25;1.33;;;;;;;;;;4978503;28;20542;-85
2021/06/24 02:23:18;;;;;;;3.13;1.67;;;;;;;;;;4996406;28;20503;-85
2021/06/24 02:25:45;;;;;;;3.83;1.20;;;;;;;;;;4993311;28;20058;-86
2021/06/24 02:28:12;;;;;;;2.63;1.40;;;;;;;;;;4988410;28;20050;-86
2021/06/24 02:30:39;;;;;;;2.40;1.17;;;;;;;;;;4996200;28;20061;-85
2021/06/24 02:33:08;;;;;;;1.55;1.10;;;;;;;;;;4988286;28;20047;-87
2021/06/24 02:35:35;;;;;;;3.88;1.58;;;;;;;;;;4977111;28;20056;-86
2021/06/24 02:38:03;;;;;;;2.22;1.17;;;;;;;;;;4985031;28;20488;-86
2021/06/24 02:40:29;;;;;;;2.15;1.40;;;;;;;;;;4989526;28;20054;-85
2021/06/24 02:42:56;;;;;;;2.00;1.45;;;;;;;;;;4993234;28;20407;-85
2021/06/24 02:45:23;;;;;;;4.20;1.52;;;;;;;;;;4979735;28;20050;-85
2021/06/24 02:47:49;;;;;;;2.58;1.35;;;;;;;;;;4994895;28;20039;-86
2021/06/24 02:50:17;;;;;;;1.88;1.30;;;;;;;;;;4978681;28;20051;-87
2021/06/24 02:52:44;;;;;;;1.75;1.10;;;;;;;;;;4994558;28;20148;-85
2021/06/24 02:55:12;;;;;;;6.53;1.30;;;;;;;;;;4981199;28;20065;-85
2021/06/24 02:57:38;;;;;;;2.30;1.60;;;;;;;;;;4991223;28;20046;-85
2021/06/24 03:00:06;;;;;;;4.53;1.45;;;;;;;;;;4976173;28;20491;-84
2021/06/24 03:02:32;;;;;;;2.42;1.33;;;;;;;;;;4990906;28;20038;-86
2021/06/24 03:04:59;;;;;;;2.97;1.27;;;;;;;;;;4976787;28;20057;-84
2021/06/24 03:07:27;;;;;;;5.18;1.40;;;;;;;;;;4981574;28;20404;-84
2021/06/24 03:09:53;;;;;;;4.00;1.48;;;;;;;;;;4976898;28;20066;-83
2021/06/24 03:12:20;;;;;;;2.88;1.70;;;;;;;;;;4976181;28;20055;-82
2021/06/24 03:14:46;;;;;;;5.18;1.55;;;;;;;;;;4995012;28;20418;-83
2021/06/24 03:17:13;;;;;;;3.38;1.48;;;;;;;;;;4979248;28;20058;-83
2021/06/24 03:19:39;;;;;;;3.53;1.45;;;;;;;;;;4983390;28;20050;-84
2021/06/24 03:22:06;;;;;;;2.05;1.63;;;;;;;;;;4975948;28;20051;-84
2021/06/24 03:24:34;;;;;;;2.97;1.75;;;;;;;;;;4958866;28;20479;-85
2021/06/24 03:27:00;;;;;;;5.22;1.92;;;;;;;;;;4995959;28;20054;-83
2021/06/24 03:29:27;;;;;;;4.22;1.60;;;;;;;;;;4995707;28;20046;-84
2021/06/24 03:31:53;;;;;;;3.22;1.90;;;;;;;;;;4982090;28;20061;-83
2021/06/24 03:34:20;;;;;;;3.30;1.70;;;;;;;;;;4986674;28;20101;-84
2021/06/24 03:36:47;;;;;;;3.33;1.80;;;;;;;;;;4978844;28;20043;-83
2021/06/24 03:39:13;;;;;;;4.75;2.00;;;;;;;;;;4978788;28;20043;-85
2021/06/24 03:41:41;;;;;;;3.70;1.90;;;;;;;;;;4996003;28;20046;-84
2021/06/24 03:44:08;;;;;;;2.90;1.30;;;;;;;;;;4979242;28;20057;-83
2021/06/24 03:46:34;;;;;;;3.78;1.33;;;;;;;;;;4988076;28;20046;-84
2021/06/24 03:49:01;;;;;;;1.35;1.20;;;;;;;;;;4996591;28;20046;-83
2021/06/24 03:51:27;;;;;;;3.03;1.40;;;;;;;;;;4985692;28;20419;-85
2021/06/24 03:53:55;;;;;;;1.58;1.20;;;;;;;;;;4991851;28;20051;-84
2021/06/24 03:56:21;;;;;;;3.53;1.83;;;;;;;;;;4990953;28;20487;-85
2021/06/24 03:58:49;;;;;;;1.98;1.20;;;;;;;;;;4982569;28;20162;-84
2021/06/24 04:01:16;;;;;;;2.38;1.38;;;;;;;;;;4976205;28;20058;-85
2021/06/24 04:03:42;;;;;;;6.47;1.52;;;;;;;;;;4976440;28;20502;-85
2021/06/24 04:06:09;;;;;;;3.17;1.50;;;;;;;;;;4959817;28;20055;-85
2021/06/24 04:08:36;;;;;;;5.55;1.50;;;;;;;;;;4989214;28;20134;-86
2021/06/24 04:11:03;;;;;;;3.97;1.40;;;;;;;;;;4992228;28;20057;-86
2021/06/24 04:13:29;;;;;;;2.50;1.10;;;;;;;;;;4985459;28;20057;-86
2021/06/24 04:15:57;;;;;;;2.20;1.17;;;;;;;;;;4988816;28;20055;-84
2021/06/24 04:18:24;;;;;;;4.55;1.27;;;;;;;;;;4997927;28;20057;-85
2021/06/24 04:20:50;;;;;;;1.83;1.35;;;;;;;;;;4992199;28;20047;-85
2021/06/24 04:23:17;;;;;;;3.85;1.63;;;;;;;;;;4997634;28;20077;-84
2021/06/24 04:25:43;;;;;;;5.38;2.85;;;;;;;;;;4992423;28;20054;-83
2021/06/24 04:28:11;;;;;;;4.40;3.42;;;;;;;;;;4988609;28;20125;-84
2021/06/24 04:30:38;;;;;;;4.63;2.90;;;;;;;;;;4990938;28;20415;-83
2021/06/24 04:33:06;;;;;;;3.15;1.98;;;;;;;;;;4987995;28;20046;-83
2021/06/24 04:35:33;;;;;;;3.55;2.58;;;;;;;;;;4986606;28;20046;-83
2021/06/24 04:38:00;;;;;;;4.10;2.72;;;;;;;;;;4987970;28;20049;-83
2021/06/24 04:40:28;;;;;;;3.65;2.88;;;;;;;;;;4994439;28;20549;-83
2021/06/24 04:42:55;;;;;;;3.90;2.25;;;;;;;;;;4994553;28;20491;-83
2021/06/24 04:45:21;;;;;;;4.57;2.80;;;;;;;;;;4976979;28;20054;-84
2021/06/24 04:47:50;;;;;;;4.63;1.80;;;;;;;;;;4995556;28;20046;-83
2021/06/24 04:50:18;;;;;;;5.25;2.15;;;;;;;;;;4994344;28;20046;-83
2021/06/24 04:52:47;;;;;;;3.47;1.73;;;;;;;;;;4987864;28;20051;-83
2021/06/24 04:55:23;;;;;;;5.50;2.33;;;;;;;;;;4993847;28;20057;-82
2021/06/24 04:57:51;;;;;;;3.42;1.80;;;;;;;;;;4996116;28;20112;-83
2021/06/24 05:00:18;;;;;;;6.35;2.67;;;;;;;;;;4977263;28;20081;-84
2021/06/24 05:02:44;;;;;;;5.50;4.35;;;;;;;;;;4987751;28;20057;-82
2021/06/24 05:05:11;;;;;;;5.35;2.72;;;;;;;;;;4977570;28;20042;-83
2021/06/24 05:07:40;;;;;;;6.93;2.70;;;;;;;;;;4988287;28;20051;-83
2021/06/24 05:10:07;;;;;;;6.47;3.42;;;;;;;;;;4975958;28;20046;-84
2021/06/24 05:12:34;;;;;;;3.70;2.78;;;;;;;;;;4993896;28;20047;-84
2021/06/24 05:15:01;;;;;;;4.30;3.78;;;;;;;;;;4994032;28;20054;-84
2021/06/24 05:17:28;;;;;;;5.28;3.40;;;;;;;;;;4995679;28;20137;-84
2021/06/24 05:19:55;;;;;;;5.18;3.13;;;;;;;;;;4990350;28;20123;-86
2021/06/24 05:22:21;;;;;;;8.43;4.05;;;;;;;;;;4993952;28;20403;-84
2021/06/24 05:24:49;;;;;;;7.13;4.40;;;;;;;;;;4982256;28;20047;-84
2021/06/24 05:27:16;;;;;;;14.55;4.28;;;;;;;;;;4975106;28;20411;-84
2021/06/24 05:29:42;;;;;;;6.70;4.18;;;;;;;;;;4979528;28;20043;-84
2021/06/24 05:32:09;;;;;;;5.35;3.92;;;;;;;;;;4995637;28;20054;-85
2021/06/24 05:34:35;;;;;;;6.15;4.40;;;;;;;;;;4994846;28;20054;-84
2021/06/24 05:37:03;;;;;;;5.20;4.35;;;;;;;;;;4994542;28;20050;-84
2021/06/24 05:39:29;;;;;;;6.72;4.53;;;;;;;;;;4981366;28;20093;-84
2021/06/24 05:42:06;;;;;;;7.75;4.03;;;;;;;;;;4996205;28;20057;-84
2021/06/24 05:44:40;;;;;;;5.43;4.55;;;;;;;;;;4995860;28;20054;-85
2021/06/24 05:47:06;;;;;;;6.85;4.43;;;;;;;;;;4987782;28;20054;-85
2021/06/24 05:49:33;;;;;;;7.15;4.30;;;;;;;;;;4992327;28;20054;-87
2021/06/24 05:51:59;;;;;;;6.90;4.28;;;;;;;;;;4993406;28;20402;-86
2021/06/24 05:54:26;;;;;;;5.25;4.38;;;;;;;;;;4988927;28;20406;-84
2021/06/24 05:56:52;;;;;;;7.25;3.83;;;;;;;;;;4980683;28;20054;-90
2021/06/24 05:59:20;;;;;;;6.03;4.20;;;;;;;;;;4997404;28;20069;-84
2021/06/24 06:05:18;;;;;;;6.80;4.70;;;;;;;;;;4998913;28;20115;-85
2021/06/24 06:11:45;;;;;;;7.57;4.40;;;;;;;;;;4998037;28;20119;-84
2021/06/24 06:14:12;;;;;;;5.97;4.10;;;;;;;;;;4998712;28;20046;-85
2021/06/24 06:16:40;;;;;;;8.10;4.97;;;;;;;;;;4999105;28;20050;-85
2021/06/24 06:19:07;;;;;;;6.47;4.28;;;;;;;;;;4999424;28;20054;-85
2021/06/24 06:21:33;;;;;;;5.07;3.90;;;;;;;;;;5000125;28;20072;-85
2021/06/24 06:24:01;;;;;;;5.38;3.88;;;;;;;;;;5001078;28;20144;-85
2021/06/24 06:26:28;;;;;;;4.85;4.10;;;;;;;;;;5000150;28;20142;-85
2021/06/24 06:28:54;;;;;;;4.95;3.95;;;;;;;;;;4999901;28;20042;-86
2021/06/24 06:31:23;;;;;;;6.35;4.68;;;;;;;;;;4988745;28;20054;-85
2021/06/24 06:33:50;;;;;;;5.70;4.30;;;;;;;;;;4978286;28;20051;-85
2021/06/24 06:36:17;;;;;;;6.00;3.97;;;;;;;;;;4984614;28;20091;-86
2021/06/24 06:38:43;;;;;;;8.02;4.45;;;;;;;;;;4983034;28;20522;-85
2021/06/24 06:41:10;;;;;;;4.78;3.88;;;;;;;;;;4991551;28;20068;-85
2021/06/24 06:43:37;;;;;;;5.10;3.70;;;;;;;;;;4990664;28;20070;-85
2021/06/24 06:46:04;;;;;;;4.50;3.65;;;;;;;;;;4995624;28;20533;-85
2021/06/24 06:48:30;;;;;;;4.50;3.60;;;;;;;;;;4995609;28;20058;-85
2021/06/24 06:50:58;;;;;;;4.63;3.45;;;;;;;;;;4995906;28;20445;-85
2021/06/24 06:53:25;;;;;;;5.72;3.92;;;;;;;;;;4998395;28;20043;-84
2021/06/24 06:55:51;;;;;;;4.70;3.40;;;;;;;;;;5000160;28;20050;-85
2021/06/24 06:58:18;;;;;;;4.18;3.60;;;;;;;;;;4994106;28;20162;-85
2021/06/24 07:00:45;;;;;;;4.43;3.42;;;;;;;;;;4998736;28;20109;-84
2021/06/24 07:03:11;;;;;;;4.53;3.80;;;;;;;;;;4997699;28;20521;-84
2021/06/24 07:05:38;;;;;;;5.10;3.40;;;;;;;;;;4996948;28;20054;-85
2021/06/24 07:08:06;;;;;;;4.95;3.58;;;;;;;;;;4992326;28;20074;-84
2021/06/24 07:10:33;;;;;;;3.45;3.13;;;;;;;;;;4991717;28;20530;-84
2021/06/24 07:12:59;;;;;;;4.82;3.00;;;;;;;;;;4979170;28;20058;-85
2021/06/24 07:15:26;;;;;;;3.83;3.30;;;;;;;;;;4981920;28;20509;-86
2021/06/24 07:17:53;;;;;;;5.03;3.25;;;;;;;;;;4992935;28;20061;-88
2021/06/24 07:20:20;;;;;;;3.78;3.03;;;;;;;;;;4979487;28;20055;-85
2021/06/24 07:22:46;;;;;;;4.90;2.97;;;;;;;;;;4991990;28;20451;-84
2021/06/24 07:25:16;;;;;;;3.53;2.90;;;;;;;;;;4976661;28;20482;-86
2021/06/24 07:27:42;;;;;;;3.83;2.67;;;;;;;;;;4982703;28;20077;-86
2021/06/24 07:30:10;;;;;;;3.60;2.50;;;;;;;;;;4997775;28;20566;-85
2021/06/24 07:32:36;;;;;;;7.88;3.05;;;;;;;;;;4983917;28;20511;-84
2021/06/24 07:35:03;;;;;;;4.65;2.40;;;;;;;;;;4978044;28;20125;-85
2021/06/24 07:37:30;;;;;;;5.00;2.70;;;;;;;;;;4984566;28;20479;-84
2021/06/24 07:39:56;;;;;;;4.25;2.65;;;;;;;;;;4996172;28;20402;-84
2021/06/24 07:42:24;;;;;;;3.90;2.58;;;;;;;;;;4987949;28;20049;-84
2021/06/24 07:44:51;;;;;;;4.32;2.28;;;;;;;;;;4995834;28;20046;-85
2021/06/24 07:47:19;;;;;;;4.95;2.67;;;;;;;;;;4996012;28;20313;-85
2021/06/24 07:49:47;;;;;;;4.05;2.22;;;;;;;;;;4996226;28;20049;-85
2021/06/24 07:52:13;;;;;;;4.20;2.20;;;;;;;;;;4997894;28;20050;-85
2021/06/24 07:54:42;;;;;;;6.03;2.45;;;;;;;;;;4993432;28;20081;-86
2021/06/24 07:57:08;;;;;;;3.30;2.47;;;;;;;;;;4995604;28;20133;-85
2021/06/24 07:59:37;;;;;;;4.20;2.58;;;;;;;;;;4996502;28;20477;-85
2021/06/24 08:02:05;;;;;;;5.07;2.15;;;;;;;;;;4994775;28;20050;-85
2021/06/24 08:04:31;;;;;;;9.93;2.65;;;;;;;;;;4990406;28;20050;-85
2021/06/24 08:06:58;;;;;;;8.43;3.10;;;;;;;;;;4989339;28;20487;-88
2021/06/24 08:09:24;;;;;;;5.78;1.83;;;;;;;;;;4994610;28;20054;-84
2021/06/24 08:11:51;;;;;;;4.28;2.00;;;;;;;;;;4999118;28;20046;-84
2021/06/24 08:14:17;;;;;;;2.65;2.10;;;;;;;;;;4992098;28;20039;-84
2021/06/24 08:16:48;;;;;;;5.55;2.22;;;;;;;;;;4996842;28;20054;-84
2021/06/24 08:19:18;;;;;;;3.88;2.13;;;;;;;;;;4993270;28;20054;-86
2021/06/24 08:21:45;;;;;;;6.18;2.72;;;;;;;;;;4996098;28;20050;-86
2021/06/24 08:24:12;;;;;;;6.72;2.40;;;;;;;;;;4995001;28;20056;-85
2021/06/24 08:26:39;;;;;;;4.93;2.00;;;;;;;;;;4994922;28;20383;-86
2021/06/24 08:29:05;;;;;;;2.90;2.10;;;;;;;;;;4995862;28;20046;-85
2021/06/24 08:31:32;;;;;;;5.65;2.10;;;;;;;;;;4996756;28;20514;-86
2021/06/24 08:34:00;;;;;;;4.28;2.28;;;;;;;;;;4996682;28;20097;-88
2021/06/24 08:36:27;;;;;;;5.55;2.28;;;;;;;;;;4999276;28;20101;-84
2021/06/24 08:38:55;;;;;;;5.18;2.05;;;;;;;;;;4999553;28;20070;-88
2021/06/24 08:41:25;;;;;;;4.55;1.65;;;;;;;;;;4999505;28;20101;-86
2021/06/24 08:43:52;;;;;;;2.67;1.73;;;;;;;;;;4993369;28;20052;-84
2021/06/24 08:46:19;;;;;;;3.00;1.92;;;;;;;;;;4992822;28;20060;-85
2021/06/24 08:48:47;;;;;;;2.60;1.98;;;;;;;;;;4992220;28;20431;-84
2021/06/24 08:51:14;;;;;;;2.40;1.60;;;;;;;;;;4989043;28;20062;-84
2021/06/24 08:53:41;;;;;;;2.80;1.60;;;;;;;;;;4994867;28;20047;-90
2021/06/24 08:56:08;;;;;;;3.72;1.98;;;;;;;;;;4997526;28;20078;-83
2021/06/24 08:58:34;;;;;;;2.95;2.10;;;;;;;;;;4996287;28;20487;-82
2021/06/24 09:01:01;;;;;;;2.70;2.00;;;;;;;;;;4998570;28;20081;-83
2021/06/24 09:03:31;;;;;;;4.00;2.33;;;;;;;;;;4998273;28;20280;-84
2021/06/24 09:06:00;;;;;;;3.72;2.28;;;;;;;;;;4980931;28;20050;-86
2021/06/24 09:08:39;;;;;;;3.53;2.30;;;;;;;;;;4998930;28;20043;-84
2021/06/24 09:11:22;;;;;;;3.28;2.10;;;;;;;;;;4998006;28;20047;-85
2021/06/24 09:14:01;;;;;;;2.85;2.08;;;;;;;;;;4996884;28;20054;-83
2021/06/24 09:16:29;;;;;;;2.63;2.03;;;;;;;;;;4997740;28;20053;-84
2021/06/24 09:19:14;;;;;;;3.83;2.33;;;;;;;;;;4996756;28;20062;-86
2021/06/24 09:21:41;;;;;;;3.42;2.50;;;;;;;;;;4997036;28;20475;-85
2021/06/24 09:24:29;;;;;;;4.70;2.97;;;;;;;;;;4996432;28;20130;-86
2021/06/24 09:26:58;;;;;;;3.17;2.42;;;;;;;;;;5003894;28;20047;-87
2021/06/24 09:29:27;;;;;;;4.00;2.80;;;;;;;;;;5001997;28;20050;-85
2021/06/24 09:31:58;;;;;;;3.60;2.60;;;;;;;;;;5005082;28;20066;-86
2021/06/24 09:34:26;;;;;;;3.65;2.70;;;;;;;;;;5005862;28;20056;-84
2021/06/24 09:36:53;;;;;;;5.00;2.45;;;;;;;;;;5003593;28;20114;-86
2021/06/24 09:39:31;;;;;;;2.55;2.08;;;;;;;;;;5003364;28;20043;-84
2021/06/24 09:42:01;;;;;;;8.02;3.30;;;;;;;;;;5002837;28;20051;-85
2021/06/24 09:44:27;;;;;;;4.60;2.35;;;;;;;;;;5002171;28;20038;-86
2021/06/24 09:46:54;;;;;;;3.35;2.45;;;;;;;;;;5000826;28;20129;-86
2021/06/24 09:49:29;;;;;;;3.53;2.42;;;;;;;;;;5001975;28;20046;-83
2021/06/24 09:51:57;;;;;;;6.03;2.80;;;;;;;;;;5002542;28;20046;-82
2021/06/24 09:54:32;;;;;;;4.65;3.00;;;;;;;;;;4998250;28;20061;-83
2021/06/24 09:57:02;;;;;;;5.88;2.80;;;;;;;;;;5003210;28;20057;-86
2021/06/24 09:59:34;;;;;;;7.80;2.58;;;;;;;;;;5002926;28;20104;-83
2021/06/24 10:02:07;;;;;;;5.35;2.95;;;;;;;;;;5003197;28;20077;-85
2021/06/24 10:04:33;;;;;;;3.58;3.00;;;;;;;;;;4998831;28;20077;-84
2021/06/24 10:07:02;;;;;;;3.70;2.72;;;;;;;;;;5002492;28;20112;-85
2021/06/24 10:09:31;;;;;;;5.45;3.00;;;;;;;;;;5003134;28;20051;-85
2021/06/24 10:11:58;;;;;;;4.97;2.78;;;;;;;;;;5003109;28;20046;-84
2021/06/24 10:14:26;;;;;;;10.00;3.30;;;;;;;;;;4991101;28;20039;-85
2021/06/24 10:16:56;;;;;;;4.47;2.17;;;;;;;;;;4984346;28;20078;-85
2021/06/24 10:19:25;;;;;;;7.75;2.70;;;;;;;;;;4996774;28;20718;-87
2021/06/24 10:21:53;;;;;;;4.65;2.63;;;;;;;;;;5006465;28;20126;-85
2021/06/24 10:24:22;;;;;;;4.85;2.70;;;;;;;;;;5004040;28;20046;-83
2021/06/24 10:26:55;;;;;;;3.38;2.03;;;;;;;;;;5005408;28;20466;-86
2021/06/24 10:29:24;;;;;;;3.78;2.40;;;;;;;;;;5004993;28;20057;-83
2021/06/24 10:31:51;;;;;;;2.72;2.03;;;;;;;;;;5005205;28;20046;-83
2021/06/24 10:34:19;;;;;;;9.80;2.15;;;;;;;;;;5002517;28;20056;-84
2021/06/24 10:37:11;;;;;;;5.32;2.47;;;;;;;;;;5003125;28;20057;-85
2021/06/24 10:39:43;;;;;;;5.75;2.40;;;;;;;;;;4985867;28;20054;-85
2021/06/24 10:42:13;;;;;;;3.53;1.80;;;;;;;;;;4987162;28;20050;-86
2021/06/24 10:44:50;;;;;;;2.78;1.83;;;;;;;;;;4994139;28;20407;-86
2021/06/24 10:47:30;;;;;;;7.38;1.95;;;;;;;;;;5007912;28;20166;-86
2021/06/24 10:50:43;;;;;;;4.75;1.73;;;;;;;;;;5004090;28;20053;-84
2021/06/24 10:53:37;;;;;;;5.07;1.70;;;;;;;;;;4994978;28;20100;-86
2021/06/24 10:56:22;;;;;;;4.28;1.77;;;;;;;;;;4997607;28;20491;-87
2021/06/24 10:58:51;;;;;;;;;;;;;;;;;;5001544;28;20050;-84
2021/06/24 11:01:46;;;;;;;3.22;1.27;;;;;;;;;;4999979;28;19928;-84
2021/06/24 11:04:30;;;;;;;4.97;1.33;;;;;;;;;;4999886;28;20046;-84
2021/06/24 11:06:58;;;;;;;2.20;1.67;;;;;;;;;;5000210;28;20129;-85
2021/06/24 11:09:25;;;;;;;3.33;1.70;;;;;;;;;;4983549;28;20480;-85
2021/06/24 11:11:53;;;;;;;3.20;1.48;;;;;;;;;;4993531;28;20861;-84
2021/06/24 11:14:54;;;;;;;2.30;1.40;;;;;;;;;;4994020;28;20050;-84
2021/06/24 11:17:46;;;;;;;18.83;3.20;;;;;;;;;;4997210;28;20129;-83
2021/06/24 11:20:17;;;;;;;6.82;1.63;;;;;;;;;;4985336;28;20046;-85
2021/06/24 11:22:48;;;;;;;34.97;5.07;;;;;;;;;;4993720;28;20042;-85
2021/06/24 11:25:16;;;;;;;20.48;3.28;;;;;;;;;;4987877;28;20078;-85
2021/06/24 11:27:43;;;;;;;7.80;2.05;;;;;;;;;;4979341;28;20498;-82
2021/06/24 11:30:12;;;;;;;9.32;2.17;;;;;;;;;;4985035;28;20065;-85
2021/06/24 11:32:44;;;;;;;9.15;2.30;;;;;;;;;;4994661;28;20058;-84
2021/06/24 11:35:29;;;;;;;7.95;1.92;;;;;;;;;;4993568;28;20046;-83
2021/06/24 11:38:00;;;;;;;3.50;1.45;;;;;;;;;;4985822;28;20043;-83
2021/06/24 11:40:27;;;;;;;2.15;1.30;;;;;;;;;;4979444;28;20119;-83
2021/06/24 11:42:54;;;;;;;3.90;1.42;;;;;;;;;;4991658;28;20495;-84
2021/06/24 11:45:24;;;;;;;1.75;1.20;;;;;;;;;;4982920;28;20058;-83
2021/06/24 11:47:55;;;;;;;2.28;1.33;;;;;;;;;;4983087;28;21340;-83
2021/06/24 12:04:11;;;;;;;2.95;1.30;;;;;;;;;;4981147;28;20061;-80
2021/06/24 12:07:01;;;;;;;1.52;1.05;;;;;;;;;;4984929;28;20042;-83
2021/06/24 12:09:28;;;;;;;3.47;1.48;;;;;;;;;;4990407;28;20046;-81
2021/06/24 12:11:57;;;;;;;2.45;1.45;;;;;;;;;;5001216;28;20046;-80
2021/06/24 12:14:28;;;;;;;1.58;1.10;;;;;;;;;;4999700;28;20065;-81
2021/06/24 12:17:14;;;;;;;2.35;1.20;;;;;;;;;;5001175;28;20490;-82
2021/06/24 12:19:42;;;;;;;5.93;1.52;;;;;;;;;;5000265;28;20451;-83
2021/06/24 12:22:09;;;;;;;5.63;1.55;;;;;;;;;;4998082;28;20556;-82
2021/06/24 12:24:36;;;;;;;3.58;1.23;;;;;;;;;;4998805;28;20054;-84
2021/06/24 12:27:17;;;;;;;4.38;1.60;;;;;;;;;;4996172;28;20050;-82
2021/06/24 12:29:45;;;;;;;1.67;1.25;;;;;;;;;;4997824;28;20081;-84
2021/06/24 12:32:23;;;;;;;2.30;1.02;;;;;;;;;;4997366;28;20133;-83
2021/06/24 12:34:51;;;;;;;1.60;1.10;;;;;;;;;;4998194;28;20056;-83
2021/06/24 12:37:40;;;;;;;2.55;1.20;;;;;;;;;;4996598;28;20046;-85
2021/06/24 12:40:09;;;;;;;3.08;1.20;;;;;;;;;;4997471;28;20042;-80
2021/06/24 12:42:43;;;;;;;6.55;1.48;;;;;;;;;;4996608;28;20057;-83
2021/06/24 12:45:11;;;;;;;9.18;2.40;;;;;;;;;;4999280;28;20065;-83
2021/06/24 12:47:42;;;;;;;3.97;1.70;;;;;;;;;;4999868;28;20062;-83
2021/06/24 12:50:14;;;;;;;2.10;1.30;;;;;;;;;;5000511;28;20050;-82
2021/06/24 12:52:48;;;;;;;6.65;1.60;;;;;;;;;;4999765;28;20047;-82
2021/06/24 12:55:36;;;;;;;2.10;1.00;;;;;;;;;;5000071;28;20058;-81
2021/06/24 12:58:04;;;;;;;3.03;1.40;;;;;;;;;;4994254;28;20380;-81
2021/06/24 13:00:30;;;;;;;8.18;1.38;;;;;;;;;;5003530;28;20118;-83
2021/06/24 13:02:58;;;;;;;4.82;1.38;;;;;;;;;;5006272;28;20109;-81
2021/06/24 13:05:25;;;;;;;3.42;1.27;;;;;;;;;;5002732;28;20081;-83
2021/06/24 13:07:56;;;;;;;3.60;1.17;;;;;;;;;;5004405;28;20050;-81
2021/06/24 13:10:23;;;;;;;2.25;1.13;;;;;;;;;;5003138;28;20073;-82
2021/06/24 13:12:49;;;;;;;3.83;1.10;;;;;;;;;;5003626;28;20105;-82
2021/06/24 13:15:30;;;;;;;1.55;1.00;;;;;;;;;;5003694;28;20101;-81
2021/06/24 13:17:59;;;;;;;1.35;0.93;;;;;;;;;;4996279;28;20057;-82
2021/06/24 13:20:26;;;;;;;1.63;0.90;;;;;;;;;;4998902;28;20054;-84
2021/06/24 13:23:05;;;;;;;3.55;1.00;;;;;;;;;;5000576;28;20463;-80
2021/06/24 13:25:40;;;;;;;2.78;1.20;;;;;;;;;;5003895;28;20051;-83
2021/06/24 13:28:06;;;;;;;1.25;0.90;;;;;;;;;;5004196;28;20047;-82
2021/06/24 13:30:37;;;;;;;1.15;0.68;;;;;;;;;;5002039;28;20512;-83
2021/06/24 13:33:06;;;;;;;1.90;0.90;;;;;;;;;;5004791;28;20434;-83
2021/06/24 13:35:33;;;;;;;1.15;0.90;;;;;;;;;;5004598;28;20049;-82
2021/06/24 13:38:01;;;;;;;1.23;0.98;;;;;;;;;;5005963;28;20058;-83
2021/06/24 13:40:29;;;;;;;1.92;0.88;;;;;;;;;;5005639;28;20077;-84
2021/06/24 13:42:57;;;;;;;3.03;1.05;;;;;;;;;;5000066;28;20047;-83
2021/06/24 13:45:24;;;;;;;1.00;0.80;;;;;;;;;;4999871;28;20133;-84
2021/06/24 13:47:51;;;;;;;2.42;0.90;;;;;;;;;;4999167;28;20050;-83
2021/06/24 13:50:19;;;;;;;2.58;1.17;;;;;;;;;;5000415;28;20043;-82
2021/06/24 13:52:45;;;;;;;1.85;0.90;;;;;;;;;;4999503;28;20399;-81
2021/06/24 13:55:13;;;;;;;1.70;1.00;;;;;;;;;;5001216;28;20050;-82
2021/06/24 13:57:39;;;;;;;1.85;1.15;;;;;;;;;;5001973;28;20060;-84
2021/06/24 14:00:07;;;;;;;3.35;1.00;;;;;;;;;;5003089;28;20050;-84
2021/06/24 14:02:33;;;;;;;1.33;0.80;;;;;;;;;;5002342;28;20060;-82
2021/06/24 14:05:00;;;;;;;1.38;0.90;;;;;;;;;;5002914;28;20054;-82
2021/06/24 14:07:28;;;;;;;2.08;1.00;;;;;;;;;;5000914;28;20101;-82
2021/06/24 14:09:57;;;;;;;2.72;1.10;;;;;;;;;;5001705;28;20414;-82
2021/06/24 14:12:23;;;;;;;1.27;0.93;;;;;;;;;;4999701;28;20147;-82
2021/06/24 14:14:50;;;;;;;2.35;1.08;;;;;;;;;;4994843;28;20142;-81
2021/06/24 14:17:16;;;;;;;1.90;0.80;;;;;;;;;;5001660;28;20046;-82
2021/06/24 14:19:43;;;;;;;2.05;0.95;;;;;;;;;;4998215;28;20514;-81
2021/06/24 14:22:10;;;;;;;1.33;0.70;;;;;;;;;;4998924;28;20117;-82
2021/06/24 14:24:38;;;;;;;1.38;0.90;;;;;;;;;;4989090;28;20051;-82
2021/06/24 14:27:11;;;;;;;1.70;0.90;;;;;;;;;;4997812;28;20046;-83
2021/06/24 14:29:37;;;;;;;3.03;1.00;;;;;;;;;;4995257;28;20073;-81
2021/06/24 14:32:05;;;;;;;1.65;0.80;;;;;;;;;;5000816;28;20062;-81
2021/06/24 14:34:31;;;;;;;1.05;0.80;;;;;;;;;;5004210;28;20046;-82
2021/06/24 14:36:58;;;;;;;1.30;0.70;;;;;;;;;;5008485;28;20047;-81
2021/06/24 14:39:25;;;;;;;1.00;0.90;;;;;;;;;;5004195;28;20074;-80
2021/06/24 14:41:52;;;;;;;1.25;0.70;;;;;;;;;;5002659;28;20046;-81
2021/06/24 14:44:19;;;;;;;1.17;0.65;;;;;;;;;;4997492;28;20406;-80
2021/06/24 14:46:46;;;;;;;1.65;0.82;;;;;;;;;;4995154;28;20050;-80
2021/06/24 14:49:12;;;;;;;3.10;1.05;;;;;;;;;;5002943;28;20042;-81
2021/06/24 14:51:41;;;;;;;1.42;0.80;;;;;;;;;;5001239;28;20038;-80
2021/06/24 14:54:10;;;;;;;2.95;0.82;;;;;;;;;;4996576;28;20060;-80
2021/06/24 14:56:36;;;;;;;1.08;0.80;;;;;;;;;;5003567;28;20093;-79
2021/06/24 14:59:07;;;;;;;1.27;0.73;;;;;;;;;;5002032;28;20766;-81
2021/06/24 15:01:33;;;;;;;2.88;0.80;;;;;;;;;;5001218;28;20050;-81
2021/06/24 15:04:00;;;;;;;2.20;0.93;;;;;;;;;;5002175;28;20046;-81
2021/06/24 15:06:26;;;;;;;1.67;0.85;;;;;;;;;;5003944;28;20478;-80
2021/06/24 15:08:53;;;;;;;0.88;0.80;;;;;;;;;;4989436;28;20506;-82
2021/06/24 15:11:20;;;;;;;0.85;0.55;;;;;;;;;;4997026;28;20054;-81
2021/06/24 15:13:46;;;;;;;3.50;1.02;;;;;;;;;;4999016;28;20050;-82